Terminal Aerodrome Forecast
Issued by NWS

Home | Current Version | Previous Version | Text Only | Print | Product List | Glossary On
Versions: 1 2 3 4 5 6 7 8 9 10 11 12 13 14 15 16
427
FTUS43 KMQT 130522
TAFSAW
TAF
KSAW 130522Z 1306/1406 26004KT P6SM BKN035
     FM131100 17004KT 6SM -SHSN OVC030
     FM131400 11005KT 3SM -SHSN OVC015
     FM131700 08006KT 2SM -SHSN BKN020
     FM131800 07006KT 3SM -SHSN BKN025
     FM140400 36007KT P6SM -SHSN BKN035=

USA.gov is the U.S. government's official web portal to all federal, state and local government web resources and services.